createdAt,value
2022-11-05T00:01:37.330Z,91865.97
2022-11-05T00:04:28.158Z,91860.13
2022-11-05T00:07:16.592Z,91870.22
2022-11-05T00:10:02.585Z,91870.56
2022-11-05T00:12:48.263Z,91870.22
2022-11-05T00:15:34.124Z,91864.94
2022-11-05T00:18:20.012Z,91881.78
2022-11-05T00:21:05.973Z,91881.72
2022-11-05T00:23:51.939Z,91881.16
2022-11-05T00:26:37.828Z,91882.16
2022-11-05T00:29:23.781Z,91887.22
2022-11-05T00:32:09.723Z,91886.06
2022-11-05T00:34:55.514Z,91890.81
2022-11-05T00:37:45.642Z,91904.06
2022-11-05T00:40:34.975Z,91902.81
2022-11-05T00:43:20.877Z,91909.34
2022-11-05T00:46:06.727Z,91909.06
2022-11-05T00:48:52.552Z,91914.09
2022-11-05T00:51:38.372Z,91916.63
2022-11-05T00:54:24.380Z,91912.38
2022-11-05T00:57:10.643Z,91917.91
2022-11-05T00:59:56.475Z,91926.63
2022-11-05T01:02:42.405Z,91917.69
2022-11-05T01:05:28.469Z,91926.28
2022-11-05T01:08:16.258Z,91934.16
2022-11-05T01:11:02.168Z,91931.09
2022-11-05T01:13:47.926Z,91936.88
2022-11-05T01:16:33.775Z,91937.81
2022-11-05T01:19:19.737Z,91945.88
2022-11-05T01:22:05.462Z,91941.38
2022-11-05T01:24:51.463Z,91938.00
2022-11-05T01:27:37.439Z,91934.56
2022-11-05T01:30:23.136Z,91933.00
2022-11-05T01:33:09.317Z,91940.56
2022-11-05T01:35:55.501Z,91936.31
2022-11-05T01:38:41.834Z,91934.69
2022-11-05T01:41:27.670Z,91934.06
2022-11-05T01:44:13.464Z,91936.50
2022-11-05T01:46:59.258Z,91934.72
2022-11-05T01:49:45.043Z,91940.25
2022-11-05T01:52:30.867Z,91943.41
2022-11-05T01:55:16.660Z,91944.69
2022-11-05T01:58:04.572Z,91938.56
2022-11-05T02:00:50.427Z,91941.31
2022-11-05T02:03:36.108Z,91946.16
2022-11-05T02:06:21.863Z,91942.09
2022-11-05T02:09:07.710Z,91943.69
2022-11-05T02:11:53.727Z,91948.66
2022-11-05T02:14:39.536Z,91944.66
2022-11-05T02:17:25.525Z,91952.03
2022-11-05T02:20:11.325Z,91953.97
2022-11-05T02:22:57.140Z,91962.31
2022-11-05T02:25:43.079Z,91962.09
2022-11-05T02:28:28.851Z,91968.66
2022-11-05T02:31:14.688Z,91973.63
2022-11-05T02:34:00.634Z,91979.22
2022-11-05T02:36:46.554Z,91981.69
2022-11-05T02:39:32.498Z,91981.44
2022-11-05T02:42:18.261Z,91980.63
2022-11-05T02:45:06.238Z,91981.31
2022-11-05T02:47:52.243Z,91988.00
2022-11-05T02:50:37.988Z,91980.59
2022-11-05T02:53:23.850Z,91975.22
2022-11-05T02:56:09.681Z,91982.75
2022-11-05T02:58:55.470Z,91983.75
2022-11-05T03:01:41.570Z,91992.59
2022-11-05T03:04:27.714Z,91996.69
2022-11-05T03:07:13.634Z,92000.41
2022-11-05T03:10:00.060Z,92002.41
2022-11-05T03:12:45.786Z,92001.34
2022-11-05T03:15:31.605Z,92006.81
2022-11-05T03:18:17.469Z,92004.47
2022-11-05T03:21:03.245Z,92019.16
2022-11-05T03:23:51.055Z,92005.91
2022-11-05T03:26:36.905Z,92013.63
2022-11-05T03:29:22.707Z,92011.59
2022-11-05T03:32:08.465Z,91998.78
2022-11-05T03:34:54.236Z,92005.91
2022-11-05T03:37:40.070Z,92007.84
2022-11-05T03:40:26.026Z,92022.56
2022-11-05T03:43:12.185Z,92024.00
2022-11-05T03:45:58.154Z,92025.69
2022-11-05T03:48:44.134Z,92031.00
2022-11-05T03:51:30.003Z,92030.16
2022-11-05T03:54:15.938Z,92033.16
2022-11-05T03:57:01.612Z,92037.94
2022-11-05T03:59:47.514Z,92034.78
2022-11-05T04:02:35.534Z,92035.88
2022-11-05T04:05:21.624Z,92033.53
2022-11-05T04:08:12.909Z,92040.81
2022-11-05T04:11:00.078Z,92039.47
2022-11-05T04:14:05.656Z,92044.28
2022-11-05T04:17:11.741Z,92052.94
2022-11-05T04:19:57.555Z,92049.53
2022-11-05T04:22:43.352Z,92052.94
2022-11-05T04:25:29.257Z,92050.00
2022-11-05T04:28:15.128Z,92051.22
2022-11-05T04:31:01.017Z,92058.53
2022-11-05T04:33:46.884Z,92047.16
2022-11-05T04:36:32.765Z,92052.34
2022-11-05T04:39:18.716Z,92056.25
2022-11-05T04:42:04.564Z,92054.28
2022-11-05T04:44:50.504Z,92059.03
2022-11-05T04:47:36.514Z,92063.25
2022-11-05T04:50:22.469Z,92069.44
2022-11-05T04:53:10.484Z,92070.31
2022-11-05T04:55:56.600Z,92071.75
2022-11-05T04:58:42.416Z,92065.81
2022-11-05T05:01:28.357Z,92075.50
2022-11-05T05:04:14.590Z,92076.69
2022-11-05T05:07:00.513Z,92087.09
2022-11-05T05:09:46.322Z,92083.13
2022-11-05T05:12:32.107Z,92087.75
2022-11-05T05:15:18.045Z,92082.63
2022-11-05T05:18:04.049Z,92085.28
2022-11-05T05:20:49.874Z,92084.47
2022-11-05T05:23:35.831Z,92092.16
2022-11-05T05:26:21.742Z,92096.94
2022-11-05T05:29:07.702Z,92089.50
2022-11-05T05:31:55.756Z,92101.19
2022-11-05T05:34:41.538Z,92104.88
2022-11-05T05:37:27.608Z,92103.84
2022-11-05T05:40:13.523Z,92113.88
2022-11-05T05:42:59.274Z,92112.28
2022-11-05T05:45:45.224Z,92109.75
2022-11-05T05:48:30.961Z,92126.88
2022-11-05T05:51:16.751Z,92121.47
2022-11-05T05:54:02.581Z,92120.06
2022-11-05T05:56:48.580Z,92127.03
2022-11-05T05:59:36.524Z,92126.25
2022-11-05T06:02:22.563Z,92127.72
2022-11-05T06:05:08.839Z,92135.13
2022-11-05T06:07:54.949Z,92136.09
2022-11-05T06:10:40.992Z,92141.38
2022-11-05T06:13:26.833Z,92134.69
2022-11-05T06:16:12.855Z,92142.41
2022-11-05T06:18:58.743Z,92151.47
2022-11-05T06:21:44.590Z,92142.09
2022-11-05T06:24:30.470Z,92149.44
2022-11-05T06:27:16.138Z,92151.63
2022-11-05T06:30:01.989Z,92147.75
2022-11-05T06:32:48.030Z,92152.00
2022-11-05T06:35:34.005Z,92144.38
2022-11-05T06:38:19.920Z,92147.22
2022-11-05T06:41:10.021Z,92155.44
2022-11-05T06:43:56.134Z,92163.00
2022-11-05T06:46:45.769Z,92160.75
2022-11-05T06:49:34.581Z,92162.69
2022-11-05T06:52:20.378Z,92168.34
2022-11-05T06:55:06.220Z,92173.53
2022-11-05T06:57:52.131Z,92175.97
2022-11-05T07:00:38.037Z,92178.25
2022-11-05T07:03:23.920Z,92186.19
2022-11-05T07:06:09.687Z,92182.69
2022-11-05T07:08:55.487Z,92186.44
2022-11-05T07:11:41.319Z,92183.03
2022-11-05T07:14:27.099Z,92182.69
2022-11-05T07:17:12.972Z,92191.28
2022-11-05T07:20:01.277Z,92200.63
2022-11-05T07:22:47.075Z,92203.28
2022-11-05T07:25:32.995Z,92209.34
2022-11-05T07:28:18.965Z,92221.06
2022-11-05T07:31:04.740Z,92223.88
2022-11-05T07:33:50.717Z,92221.44
2022-11-05T07:36:36.632Z,92227.94
2022-11-05T07:39:22.458Z,92232.25
2022-11-05T07:42:08.310Z,92231.66
2022-11-05T07:44:56.051Z,92240.84
2022-11-05T07:47:41.772Z,92237.66
2022-11-05T07:50:27.833Z,92244.69
2022-11-05T07:53:14.043Z,92252.88
2022-11-05T07:56:00.071Z,92252.59
2022-11-05T07:58:46.057Z,92258.84
2022-11-05T08:01:32.166Z,92253.44
2022-11-05T08:04:18.419Z,92252.63
2022-11-05T08:07:04.407Z,92247.63
2022-11-05T08:09:50.276Z,92258.22
2022-11-05T08:12:36.169Z,92265.75
2022-11-05T08:15:22.075Z,92264.97
2022-11-05T08:18:08.109Z,92268.16
2022-11-05T08:20:53.853Z,92263.59
2022-11-05T08:23:39.582Z,92271.41
2022-11-05T08:26:25.405Z,92267.59
2022-11-05T08:29:11.152Z,92265.94
2022-11-05T08:31:57.058Z,92267.00
2022-11-05T08:34:42.947Z,92264.44
2022-11-05T08:37:28.672Z,92272.31
2022-11-05T08:40:14.546Z,92278.25
2022-11-05T08:43:00.591Z,92279.78
2022-11-05T08:45:48.479Z,92279.28
2022-11-05T08:48:34.276Z,92272.78
2022-11-05T08:51:20.172Z,92285.31
2022-11-05T08:54:05.939Z,92285.25
2022-11-05T08:56:51.781Z,92289.94
2022-11-05T08:59:37.540Z,92293.09
2022-11-05T09:02:23.529Z,92288.03
2022-11-05T09:05:09.840Z,92292.53
2022-11-05T09:08:00.911Z,92293.19
2022-11-05T09:10:47.439Z,92298.88
2022-11-05T09:13:33.615Z,92297.31
2022-11-05T09:16:19.625Z,92299.06
2022-11-05T09:19:07.587Z,92304.41
2022-11-05T09:21:53.360Z,92308.63
2022-11-05T09:24:39.205Z,92301.88
2022-11-05T17:14:51.515Z,92365.03
2022-11-05T17:17:37.701Z,92358.09
2022-11-05T17:20:23.666Z,92353.63
2022-11-05T17:23:10.004Z,92345.84
2022-11-05T17:25:56.612Z,92351.72
2022-11-05T17:28:42.322Z,92350.75
2022-11-05T17:31:28.337Z,92350.97
2022-11-05T17:34:14.251Z,92356.72
2022-11-05T17:37:00.055Z,92357.72
2022-11-05T17:39:45.883Z,92357.53
2022-11-05T17:42:31.650Z,92360.53
2022-11-05T17:45:17.423Z,92355.59
2022-11-05T17:48:03.226Z,92355.63
2022-11-05T17:50:49.053Z,92353.50
2022-11-05T17:53:34.973Z,92356.22
2022-11-05T17:56:30.516Z,92355.50
2022-11-05T17:59:20.492Z,92354.69
2022-11-05T18:02:06.662Z,92357.16
2022-11-05T18:04:52.913Z,92357.69
2022-11-05T18:07:38.843Z,92351.16
2022-11-05T18:10:24.866Z,92344.09
2022-11-05T18:13:11.161Z,92335.91
2022-11-05T18:15:57.616Z,92318.19
2022-11-05T18:18:43.533Z,92323.22
2022-11-05T18:21:29.403Z,92318.31
2022-11-05T18:24:15.331Z,92324.75
2022-11-05T18:27:01.099Z,92329.16
2022-11-05T18:29:47.106Z,92335.63
2022-11-05T18:32:32.964Z,92337.84
2022-11-05T18:35:18.831Z,92339.81
2022-11-05T18:38:04.946Z,92348.97
2022-11-05T18:40:50.645Z,92352.97
2022-11-05T18:43:36.415Z,92337.69
2022-11-05T18:46:51.082Z,92333.75
2022-11-05T18:49:28.611Z,92340.09
2022-11-05T18:52:14.414Z,92342.13
2022-11-05T18:55:00.283Z,92343.22
2022-11-05T18:57:46.074Z,92345.50
2022-11-05T19:00:31.873Z,92355.88
2022-11-05T19:03:17.820Z,92356.19
2022-11-05T19:06:03.711Z,92340.06
2022-11-05T19:08:49.611Z,92344.13
2022-11-05T19:11:35.401Z,92341.16
2022-11-05T19:14:21.306Z,92331.41
2022-11-05T19:17:07.302Z,92340.34
2022-11-05T19:19:53.067Z,92354.13
2022-11-05T19:22:38.932Z,92362.16
2022-11-05T19:25:24.831Z,92359.69
2022-11-05T19:28:11.034Z,92360.38
2022-11-05T19:30:57.134Z,92349.88
2022-11-05T19:33:43.155Z,92354.47
2022-11-05T19:36:29.160Z,92362.84
2022-11-05T19:39:15.146Z,92366.34
2022-11-05T19:42:03.751Z,92359.56
2022-11-05T19:44:50.132Z,92352.00
2022-11-05T19:47:36.078Z,92341.97
2022-11-05T19:50:21.984Z,92357.41
2022-11-05T19:53:08.057Z,92359.03
2022-11-05T19:55:53.988Z,92376.50
2022-11-05T19:58:39.874Z,92372.94
2022-11-05T20:01:25.820Z,92371.91
2022-11-05T20:04:12.127Z,92371.94
2022-11-05T20:06:58.200Z,92367.63
2022-11-05T20:09:44.110Z,92361.28
2022-11-05T20:12:29.860Z,92362.50
2022-11-05T20:15:15.735Z,92359.63
2022-11-05T20:18:01.770Z,92357.56
2022-11-05T20:20:47.575Z,92363.66
2022-11-05T20:23:33.437Z,92363.81
2022-11-05T20:26:19.348Z,92351.91
2022-11-05T20:29:05.257Z,92355.47
2022-11-05T20:31:51.226Z,92346.44
2022-11-05T20:34:36.997Z,92344.28
2022-11-05T20:37:22.824Z,92343.16
2022-11-05T20:40:08.839Z,92340.09
2022-11-05T20:42:54.557Z,92348.34
2022-11-05T20:45:40.431Z,92350.78
2022-11-05T20:48:26.279Z,92351.81
2022-11-05T20:51:12.287Z,92357.78
2022-11-05T20:53:58.239Z,92361.91
2022-11-05T20:56:44.084Z,92365.06
2022-11-05T20:59:30.104Z,92367.53
2022-11-05T21:02:16.168Z,92374.50
2022-11-05T21:05:02.391Z,92375.19
2022-11-05T21:07:48.403Z,92373.78
2022-11-05T21:10:34.104Z,92370.25
2022-11-05T21:13:19.902Z,92365.41
2022-11-05T21:16:05.788Z,92366.19
2022-11-05T21:18:51.599Z,92371.56
2022-11-05T21:21:41.102Z,92374.75
2022-11-05T21:24:27.528Z,92379.19
2022-11-05T21:27:13.383Z,92375.38
2022-11-05T21:29:59.313Z,92376.22
2022-11-05T21:32:45.225Z,92388.53
2022-11-05T21:35:30.946Z,92387.03
2022-11-05T21:38:16.764Z,92384.72
2022-11-05T21:41:04.726Z,92392.63
2022-11-05T21:43:50.603Z,92393.28
2022-11-05T21:46:36.441Z,92401.94
2022-11-05T21:49:22.384Z,92392.69
2022-11-05T21:52:10.244Z,92383.22
2022-11-05T21:54:56.260Z,92376.44
2022-11-05T21:57:42.186Z,92379.97
2022-11-05T22:00:28.141Z,92387.94
2022-11-05T22:03:14.097Z,92399.53
2022-11-05T22:05:59.970Z,92410.91
2022-11-05T22:08:45.857Z,92409.72
2022-11-05T22:11:31.763Z,92408.75
2022-11-05T22:14:17.601Z,92396.66
2022-11-05T22:17:03.511Z,92399.50
2022-11-05T22:19:49.199Z,92390.94
2022-11-05T22:22:34.953Z,92389.63
2022-11-05T22:25:23.891Z,92382.59
2022-11-05T22:28:09.977Z,92384.53
2022-11-05T22:30:57.937Z,92385.97
2022-11-05T22:33:43.892Z,92385.56
2022-11-05T22:36:29.601Z,92383.09
2022-11-05T22:39:15.578Z,92369.97
2022-11-05T22:42:05.726Z,92363.72
2022-11-05T22:44:54.304Z,92361.41
2022-11-05T22:47:40.114Z,92364.00
2022-11-05T22:50:26.025Z,92356.38
2022-11-05T22:53:11.918Z,92344.63
2022-11-05T22:55:57.739Z,92347.25
2022-11-05T22:58:43.636Z,92329.00
2022-11-05T23:01:29.580Z,92311.56
2022-11-05T23:04:15.542Z,92309.56
2022-11-05T23:07:01.553Z,92303.44
2022-11-05T23:09:47.362Z,92301.56
2022-11-05T23:12:33.336Z,92297.09
2022-11-05T23:15:21.237Z,92284.38
2022-11-05T23:18:07.068Z,92280.75
2022-11-05T23:20:53.097Z,92292.53
2022-11-05T23:23:38.797Z,92300.06
2022-11-05T23:26:24.685Z,92315.06
2022-11-05T23:29:10.605Z,92318.53
2022-11-05T23:31:56.437Z,92323.72
2022-11-05T23:34:42.368Z,92328.31
2022-11-05T23:37:28.399Z,92342.19
2022-11-05T23:40:14.319Z,92356.94
2022-11-05T23:43:00.236Z,92348.09
2022-11-05T23:45:46.133Z,92342.75
2022-11-05T23:48:32.066Z,92341.38
2022-11-05T23:51:18.023Z,92347.19
2022-11-05T23:54:05.846Z,92341.94
2022-11-05T23:56:51.627Z,92331.81
2022-11-05T23:59:37.642Z,92329.28
